Time;durP1;ratioP1;P1;durP2;ratioP2;P2;SDS_P1;SDS_P2;PMS_P1;PMS_P2;Temp;Humidity;BMP_temperature;BMP_pressure;BME280_temperature;BME280_humidity;BME280_pressure;Samples;Min_cycle;Max_cycle;Signal;HPM_P1;HPM_P2
2022/05/25 00:00:38;;;;;;;0.83;0.60;;;19.90;99.90;;;;;;5069537;28;20302;-69
2022/05/25 00:03:07;;;;;;;0.90;0.40;;;19.60;99.90;;;;;;5072511;28;20179;-69
2022/05/25 00:05:34;;;;;;;5.30;0.90;;;20.00;99.90;;;;;;5071404;28;20710;-68
2022/05/25 00:08:03;;;;;;;1.50;0.57;;;20.10;99.90;;;;;;5071135;28;20190;-68
2022/05/25 00:10:32;;;;;;;1.03;0.60;;;20.40;99.90;;;;;;5071769;28;20195;-69
2022/05/25 00:12:59;;;;;;;3.63;0.50;;;20.50;99.90;;;;;;5072153;28;20184;-67
2022/05/25 00:15:28;;;;;;;1.73;0.60;;;20.20;99.90;;;;;;5070530;28;20180;-68
2022/05/25 00:17:56;;;;;;;2.00;0.60;;;20.10;99.90;;;;;;5071975;28;20215;-69
2022/05/25 00:20:24;;;;;;;2.20;0.50;;;20.40;99.90;;;;;;5072122;28;20284;-68
2022/05/25 00:22:55;;;;;;;2.03;0.60;;;21.10;99.90;;;;;;5072298;28;20203;-68
2022/05/25 00:25:24;;;;;;;2.87;0.90;;;21.30;99.90;;;;;;5072274;28;20179;-68
2022/05/25 00:27:52;;;;;;;0.80;0.40;;;21.20;99.90;;;;;;5071917;28;20251;-69
2022/05/25 00:30:20;;;;;;;2.20;0.53;;;21.20;99.90;;;;;;5072327;28;20262;-69
2022/05/25 00:32:48;;;;;;;1.17;0.60;;;21.10;99.90;;;;;;5072051;28;20657;-70
2022/05/25 00:35:19;;;;;;;2.93;0.57;;;20.50;99.90;;;;;;5072127;28;20638;-69
2022/05/25 00:37:47;;;;;;;1.77;0.50;;;21.00;99.90;;;;;;5072107;28;20176;-70
2022/05/25 00:40:19;;;;;;;3.10;0.60;;;21.20;99.90;;;;;;5070809;28;20203;-67
2022/05/25 00:42:47;;;;;;;2.63;0.80;;;21.30;99.90;;;;;;5072266;28;20168;-67
2022/05/25 00:45:15;;;;;;;2.83;0.63;;;21.80;99.90;;;;;;5071968;28;20236;-68
2022/05/25 00:47:49;;;;;;;3.17;0.60;;;21.80;99.90;;;;;;5071558;28;20282;-68
2022/05/25 00:50:21;;;;;;;1.13;0.50;;;21.90;99.90;;;;;;5071549;28;20175;-68
2022/05/25 00:52:50;;;;;;;2.00;0.80;;;22.00;99.90;;;;;;5071721;28;20385;-68
2022/05/25 00:55:28;;;;;;;1.33;0.60;;;21.80;99.90;;;;;;5071660;28;20653;-68
2022/05/25 00:58:00;;;;;;;1.57;0.60;;;22.40;99.90;;;;;;5069659;28;20535;-68
2022/05/25 01:00:30;;;;;;;2.97;0.50;;;21.70;99.90;;;;;;5071509;28;20221;-68
2022/05/25 01:03:10;;;;;;;2.10;0.50;;;21.40;99.90;;;;;;5071285;28;20188;-69
2022/05/25 01:05:44;;;;;;;1.17;0.40;;;21.90;99.90;;;;;;5059512;28;20205;-69
2022/05/25 01:08:39;;;;;;;0.93;0.40;;;22.50;99.90;;;;;;5075016;28;20212;-68
2022/05/25 01:11:24;;;;;;;2.50;0.63;;;22.60;99.90;;;;;;5071142;28;20186;-69
2022/05/25 01:13:55;;;;;;;2.17;0.37;;;22.30;99.90;;;;;;5071392;28;20620;-69
2022/05/25 01:16:28;;;;;;;7.83;1.20;;;21.80;99.90;;;;;;5071053;28;20572;-68
2022/05/25 01:19:14;;;;;;;1.30;0.60;;;21.90;99.90;;;;;;5071368;28;20192;-69
2022/05/25 01:22:05;;;;;;;0.73;0.50;;;22.50;99.90;;;;;;5071095;28;20183;-67
2022/05/25 01:24:39;;;;;;;4.13;1.20;;;22.90;99.90;;;;;;5071371;28;20176;-69
2022/05/25 01:27:15;;;;;;;0.80;0.50;;;22.70;99.90;;;;;;5071105;28;20175;-69
2022/05/25 01:30:03;;;;;;;11.63;1.50;;;22.50;99.90;;;;;;5071415;28;20701;-69
2022/05/25 01:32:48;;;;;;;1.80;0.57;;;23.30;99.90;;;;;;5071309;28;20175;-69
2022/05/25 01:35:49;;;;;;;1.20;0.50;;;24.00;99.90;;;;;;5070620;28;20198;-69
2022/05/25 01:38:26;;;;;;;1.30;0.60;;;24.40;99.90;;;;;;5071031;28;20182;-70
2022/05/25 01:41:02;;;;;;;5.63;1.20;;;24.60;99.90;;;;;;5070730;28;20217;-69
2022/05/25 01:43:43;;;;;;;2.60;0.40;;;24.30;99.90;;;;;;5073726;28;20188;-69
2022/05/25 01:46:37;;;;;;;2.27;0.73;;;23.80;99.90;;;;;;5057451;28;20184;-69
2022/05/25 01:49:12;;;;;;;3.33;0.43;;;23.60;99.90;;;;;;5075217;28;20184;-69
2022/05/25 01:51:48;;;;;;;0.57;0.40;;;23.20;99.90;;;;;;5074731;28;20183;-69
2022/05/25 01:54:26;;;;;;;1.37;0.60;;;24.10;99.90;;;;;;5073660;28;20704;-68
2022/05/25 01:56:58;;;;;;;1.50;0.60;;;24.00;99.90;;;;;;5070035;28;20187;-68
2022/05/25 01:59:26;;;;;;;2.73;0.40;;;23.40;99.90;;;;;;5074864;28;20180;-68
2022/05/25 02:04:51;;;;;;;1.17;0.40;;;23.70;99.90;;;;;;5071838;28;20186;-68
2022/05/25 02:07:37;;;;;;;0.40;0.30;;;23.40;99.90;;;;;;5074552;28;20263;-69
2022/05/25 02:10:23;;;;;;;5.47;1.63;;;22.90;99.90;;;;;;5074778;28;20251;-68
2022/05/25 02:13:21;;;;;;;0.43;0.40;;;22.60;99.90;;;;;;5072810;28;20207;-68
2022/05/25 02:15:51;;;;;;;14.17;2.97;;;22.70;99.90;;;;;;5074487;28;20232;-68
2022/05/25 02:18:25;;;;;;;1.17;0.50;;;23.20;99.90;;;;;;5074164;28;20182;-69
2022/05/25 02:21:02;;;;;;;1.17;0.40;;;24.40;99.90;;;;;;5074483;28;20547;-69
2022/05/25 02:23:35;;;;;;;2.43;0.40;;;25.10;99.90;;;;;;5073149;28;20187;-69
2022/05/25 02:26:21;;;;;;;2.90;0.40;;;25.20;99.90;;;;;;5074413;28;20530;-69
2022/05/25 02:29:20;;;;;;;2.10;0.60;;;25.50;99.90;;;;;;5074111;28;20179;-68
2022/05/25 02:31:53;;;;;;;4.60;1.40;;;25.00;99.90;;;;;;5073081;28;20184;-69
2022/05/25 02:34:24;;;;;;;2.23;0.90;;;24.70;99.90;;;;;;5054393;28;20551;-69
2022/05/25 02:36:53;;;;;;;7.20;2.20;;;23.90;99.90;;;;;;5054221;28;20595;-69
2022/05/25 02:39:22;;;;;;;14.43;4.43;;;24.20;99.90;;;;;;5054190;28;20207;-69
2022/05/25 02:41:53;;;;;;;44.33;13.10;;;24.60;99.90;;;;;;5054082;28;20208;-69
2022/05/25 02:44:21;;;;;;;3.87;1.70;;;23.40;99.90;;;;;;5054193;28;20573;-70
2022/05/25 02:46:49;;;;;;;9.23;2.60;;;23.40;99.90;;;;;;5054174;28;20180;-70
2022/05/25 02:49:17;;;;;;;2.97;0.70;;;23.80;99.90;;;;;;5067449;28;20180;-69
2022/05/25 02:51:45;;;;;;;1.27;0.60;;;24.40;99.90;;;;;;5072152;28;20192;-68
2022/05/25 02:54:13;;;;;;;8.90;1.77;;;24.00;99.90;;;;;;5073501;28;20180;-67
2022/05/25 02:56:40;;;;;;;3.20;0.90;;;23.50;99.90;;;;;;5073511;28;20284;-68
2022/05/25 02:59:07;;;;;;;5.90;1.03;;;22.90;99.90;;;;;;5073923;28;20180;-68
2022/05/25 03:01:35;;;;;;;1.57;0.60;;;23.00;99.90;;;;;;5073512;28;20573;-68
2022/05/25 03:04:02;;;;;;;1.37;0.60;;;23.60;99.90;;;;;;5073685;28;20260;-68
2022/05/25 03:06:29;;;;;;;6.83;0.87;;;23.90;99.90;;;;;;5073497;28;20183;-68
2022/05/25 03:08:57;;;;;;;6.83;1.10;;;24.70;99.90;;;;;;5073622;28;20176;-68
2022/05/25 03:11:24;;;;;;;1.23;0.80;;;25.00;99.90;;;;;;5073697;28;20179;-68
2022/05/25 03:13:52;;;;;;;2.10;0.77;;;24.00;99.90;;;;;;5073371;28;20187;-68
2022/05/25 03:16:21;;;;;;;2.27;0.63;;;24.20;99.90;;;;;;5073280;28;20219;-69
2022/05/25 03:18:50;;;;;;;5.37;1.10;;;24.40;99.90;;;;;;5073543;28;20179;-69
2022/05/25 03:21:19;;;;;;;0.90;0.60;;;23.90;99.90;;;;;;5073182;28;20211;-68
2022/05/25 03:23:47;;;;;;;3.50;0.67;;;23.30;99.90;;;;;;5073185;28;20176;-68
2022/05/25 03:26:15;;;;;;;2.90;0.60;;;22.80;99.90;;;;;;5073381;28;20246;-68
2022/05/25 03:28:42;;;;;;;3.70;0.83;;;22.80;99.90;;;;;;5073284;28;20645;-69
2022/05/25 03:31:10;;;;;;;2.20;0.63;;;22.60;99.90;;;;;;5073311;28;20179;-69
2022/05/25 03:33:37;;;;;;;1.40;0.60;;;22.70;99.90;;;;;;5072475;28;20585;-69
2022/05/25 03:36:05;;;;;;;2.83;0.90;;;22.60;99.90;;;;;;5073130;28;20164;-70
2022/05/25 03:38:32;;;;;;;1.73;0.70;;;22.50;99.90;;;;;;5072901;28;20180;-69
2022/05/25 03:41:01;;;;;;;4.20;0.90;;;22.60;99.90;;;;;;5073036;28;20264;-69
2022/05/25 03:43:37;;;;;;;2.10;0.70;;;22.70;99.90;;;;;;5072805;28;20180;-69
2022/05/25 03:46:05;;;;;;;2.23;0.80;;;22.00;99.90;;;;;;5072961;28;20172;-69
2022/05/25 03:48:32;;;;;;;1.83;0.70;;;21.60;99.90;;;;;;5072775;28;20175;-69
2022/05/25 03:50:59;;;;;;;1.43;0.67;;;21.30;99.90;;;;;;5072751;28;20814;-69
2022/05/25 03:53:27;;;;;;;3.80;0.63;;;21.00;99.90;;;;;;5071073;28;20195;-69
2022/05/25 03:55:54;;;;;;;3.07;0.87;;;21.10;99.90;;;;;;5071254;28;20266;-69
2022/05/25 03:58:21;;;;;;;2.47;0.50;;;21.20;99.90;;;;;;5072709;28;20183;-68
2022/05/25 04:00:49;;;;;;;4.23;0.70;;;21.30;99.90;;;;;;5072374;28;20230;-68
2022/05/25 04:03:17;;;;;;;2.77;0.97;;;21.10;99.90;;;;;;5072383;28;20179;-67
2022/05/25 04:05:45;;;;;;;1.83;0.77;;;20.70;99.90;;;;;;5071846;28;20273;-67
2022/05/25 04:08:12;;;;;;;2.97;0.60;;;20.30;99.90;;;;;;5072342;28;20576;-68
2022/05/25 04:10:40;;;;;;;1.10;0.77;;;20.30;99.90;;;;;;5072273;28;20248;-68
2022/05/25 04:13:08;;;;;;;2.77;0.70;;;20.10;99.90;;;;;;5072314;28;20181;-69
2022/05/25 04:15:36;;;;;;;4.97;0.73;;;19.90;99.90;;;;;;5072248;28;20208;-68
2022/05/25 04:18:04;;;;;;;4.30;1.00;;;19.60;99.90;;;;;;5071524;28;20341;-68
2022/05/25 04:20:33;;;;;;;1.67;0.80;;;19.60;99.90;;;;;;5072344;28;20603;-70
2022/05/25 04:23:02;;;;;;;5.67;0.90;;;19.40;99.90;;;;;;5072800;28;20232;-71
2022/05/25 04:25:30;;;;;;;3.80;0.90;;;19.40;99.90;;;;;;5072764;28;20274;-71
2022/05/25 04:27:58;;;;;;;1.50;0.63;;;19.40;99.90;;;;;;5072854;28;20639;-70
2022/05/25 04:30:29;;;;;;;6.00;0.80;;;19.60;99.90;;;;;;5072862;28;20260;-70
2022/05/25 04:32:57;;;;;;;3.00;0.70;;;20.20;99.90;;;;;;5073817;28;20699;-69
2022/05/25 04:35:26;;;;;;;1.80;0.80;;;20.90;99.90;;;;;;5072922;28;20172;-70
2022/05/25 04:37:54;;;;;;;3.30;0.90;;;20.90;99.90;;;;;;5073101;28;20537;-72
2022/05/25 04:40:32;;;;;;;4.87;0.90;;;20.70;99.90;;;;;;5072981;28;20265;-70
2022/05/25 04:43:03;;;;;;;3.53;1.10;;;20.80;99.90;;;;;;5073160;28;20180;-70
2022/05/25 04:45:31;;;;;;;0.60;0.53;;;21.00;99.90;;;;;;5071791;28;20669;-70
2022/05/25 04:48:00;;;;;;;1.23;0.63;;;21.10;99.90;;;;;;5071540;28;20175;-70
2022/05/25 04:50:32;;;;;;;1.17;0.63;;;21.10;99.90;;;;;;5073310;28;20579;-70
2022/05/25 04:52:59;;;;;;;1.70;0.50;;;20.90;99.90;;;;;;5073274;28;20248;-70
2022/05/25 04:58:25;;;;;;;2.50;0.80;;;20.60;99.90;;;;;;5073315;28;20551;-70
2022/05/25 05:00:53;;;;;;;1.57;0.53;;;20.50;99.90;;;;;;5072429;28;20209;-69
2022/05/25 05:03:22;;;;;;;3.43;0.77;;;20.40;99.90;;;;;;5072740;28;20184;-70
2022/05/25 05:05:49;;;;;;;4.60;1.40;;;20.20;99.90;;;;;;5072853;28;20209;-70
2022/05/25 05:08:17;;;;;;;4.27;1.73;;;20.00;99.90;;;;;;5071404;28;20177;-70
2022/05/25 05:10:45;;;;;;;2.07;1.07;;;19.90;99.90;;;;;;5072996;28;20234;-70
2022/05/25 05:13:13;;;;;;;7.00;2.87;;;19.70;99.90;;;;;;5072911;28;20176;-70
2022/05/25 05:15:43;;;;;;;3.83;1.87;;;19.80;99.90;;;;;;5073949;28;20195;-71
2022/05/25 05:18:11;;;;;;;2.83;1.40;;;19.80;99.90;;;;;;5076971;28;20565;-70
2022/05/25 05:20:39;;;;;;;3.93;1.17;;;19.90;99.90;;;;;;5076292;28;20680;-68
2022/05/25 05:23:06;;;;;;;4.00;0.90;;;20.30;99.90;;;;;;5076208;28;20265;-69
2022/05/25 05:25:35;;;;;;;3.63;1.23;;;20.50;99.90;;;;;;5074920;28;20725;-69
2022/05/25 05:28:15;;;;;;;4.50;0.90;;;20.40;99.90;;;;;;5076909;28;20168;-68
2022/05/25 05:30:52;;;;;;;3.83;0.97;;;20.10;99.90;;;;;;5076382;28;20606;-69
2022/05/25 05:33:23;;;;;;;3.43;0.83;;;20.00;99.90;;;;;;5076663;28;20651;-69
2022/05/25 05:36:13;;;;;;;2.37;0.70;;;19.80;99.90;;;;;;5076717;28;20180;-69
2022/05/25 05:38:50;;;;;;;1.90;0.60;;;19.80;99.90;;;;;;5076235;28;20259;-70
2022/05/25 05:41:22;;;;;;;1.57;0.50;;;19.50;99.90;;;;;;5076159;28;20207;-69
2022/05/25 05:43:50;;;;;;;1.37;0.60;;;19.30;99.90;;;;;;5076444;28;20176;-68
2022/05/25 05:46:17;;;;;;;1.43;0.40;;;19.20;99.90;;;;;;5076141;28;20657;-69
2022/05/25 05:48:45;;;;;;;3.30;0.50;;;19.30;99.90;;;;;;5076398;28;20618;-68
2022/05/25 05:51:13;;;;;;;1.50;0.50;;;19.20;99.90;;;;;;5076055;28;20191;-68
2022/05/25 05:53:42;;;;;;;0.97;0.50;;;19.10;99.90;;;;;;5076129;28;20235;-68
2022/05/25 05:56:09;;;;;;;3.73;0.70;;;19.00;99.90;;;;;;5075897;28;20186;-68
2022/05/25 05:58:37;;;;;;;2.23;0.70;;;19.00;99.90;;;;;;5074443;28;20192;-70
2022/05/25 06:01:04;;;;;;;2.27;0.50;;;18.80;99.90;;;;;;5074339;28;20220;-69
2022/05/25 06:03:32;;;;;;;1.10;0.80;;;18.70;99.90;;;;;;5074611;28;20176;-70
2022/05/25 06:05:59;;;;;;;2.33;0.57;;;18.60;99.90;;;;;;5075197;28;20178;-70
2022/05/25 06:08:27;;;;;;;1.67;0.60;;;18.50;99.90;;;;;;5074490;28;20184;-70
2022/05/25 06:10:57;;;;;;;0.77;0.60;;;18.40;99.90;;;;;;5073159;28;20547;-70
2022/05/25 06:13:24;;;;;;;0.83;0.50;;;18.40;99.90;;;;;;5074568;28;20176;-69
2022/05/25 06:21:25;;;;;;;1.07;0.50;;;18.20;99.90;;;;;;5075876;28;20223;-70
2022/05/25 06:23:53;;;;;;;1.97;0.50;;;18.00;99.90;;;;;;5075751;28;20179;-71
2022/05/25 06:26:20;;;;;;;2.43;0.50;;;17.90;99.90;;;;;;5075522;28;20184;-70
2022/05/25 06:28:47;;;;;;;2.00;0.60;;;17.80;99.90;;;;;;5075807;28;20176;-70
2022/05/25 06:31:15;;;;;;;2.13;0.60;;;17.70;99.90;;;;;;5075562;28;20640;-70
2022/05/25 06:33:43;;;;;;;2.40;0.93;;;17.60;99.90;;;;;;5074155;28;20189;-70
2022/05/25 06:36:19;;;;;;;1.23;0.50;;;17.50;99.90;;;;;;5075494;28;20195;-71
2022/05/25 06:38:47;;;;;;;6.93;0.70;;;17.40;99.90;;;;;;5075588;28;20190;-71
2022/05/25 06:41:15;;;;;;;3.13;0.80;;;17.40;99.90;;;;;;5075422;28;20233;-69
2022/05/25 06:43:43;;;;;;;2.27;0.67;;;17.20;99.90;;;;;;5075063;28;20180;-70
2022/05/25 06:46:12;;;;;;;4.60;0.60;;;17.20;99.90;;;;;;5075232;28;20172;-70
2022/05/25 06:48:40;;;;;;;2.50;0.60;;;17.10;99.90;;;;;;5075165;28;20188;-69
2022/05/25 06:51:17;;;;;;;3.07;0.60;;;17.00;99.90;;;;;;5075296;28;20222;-70
2022/05/25 06:53:45;;;;;;;2.63;0.70;;;17.00;99.90;;;;;;5075191;28;20665;-71
2022/05/25 06:56:12;;;;;;;1.43;0.50;;;16.80;99.90;;;;;;5074854;28;20203;-70
2022/05/25 06:58:40;;;;;;;1.03;0.50;;;16.70;99.90;;;;;;5074964;28;20290;-70
2022/05/25 07:01:07;;;;;;;1.87;0.60;;;16.60;99.90;;;;;;5074924;28;20623;-70
2022/05/25 07:03:34;;;;;;;1.53;0.97;;;16.40;99.90;;;;;;5075034;28;20225;-70
2022/05/25 07:06:10;;;;;;;0.87;0.70;;;16.40;99.90;;;;;;5074739;28;20643;-71
2022/05/25 07:08:37;;;;;;;2.07;0.77;;;16.20;99.90;;;;;;5074934;28;20203;-70
2022/05/25 07:11:05;;;;;;;4.43;1.20;;;16.10;99.90;;;;;;5074809;28;20200;-70
2022/05/25 07:13:33;;;;;;;3.77;0.70;;;16.00;99.90;;;;;;5074675;28;20540;-70
2022/05/25 07:16:06;;;;;;;3.63;1.00;;;15.90;99.90;;;;;;5074109;28;20168;-71
2022/05/25 07:18:34;;;;;;;0.90;0.80;;;15.80;99.90;;;;;;5075009;28;20184;-71
2022/05/25 07:21:07;;;;;;;2.83;0.90;;;15.70;99.90;;;;;;5074676;28;20207;-71
2022/05/25 07:23:37;;;;;;;1.67;1.00;;;15.60;99.90;;;;;;5074594;28;20705;-71
2022/05/25 07:26:06;;;;;;;3.00;0.90;;;15.50;99.90;;;;;;5074487;28;20630;-70
2022/05/25 07:28:35;;;;;;;2.43;1.03;;;15.40;99.90;;;;;;5074471;28;20178;-71
2022/05/25 07:31:10;;;;;;;3.63;1.17;;;15.30;99.90;;;;;;5074559;28;20634;-71
2022/05/25 07:33:40;;;;;;;2.27;0.90;;;15.20;99.90;;;;;;5074622;28;20172;-71
2022/05/25 07:36:10;;;;;;;4.10;1.10;;;15.20;99.90;;;;;;5074223;28;20171;-70
2022/05/25 07:38:42;;;;;;;4.03;1.20;;;15.20;99.90;;;;;;5073794;28;20176;-70
2022/05/25 07:41:10;;;;;;;1.90;0.80;;;15.10;99.90;;;;;;5074243;28;20214;-70
2022/05/25 07:43:40;;;;;;;4.93;1.10;;;15.00;99.90;;;;;;5074083;28;20176;-70
2022/05/25 07:46:07;;;;;;;2.87;1.13;;;15.00;99.90;;;;;;5074195;28;20164;-70
2022/05/25 07:48:36;;;;;;;3.60;0.90;;;15.00;99.90;;;;;;5074058;28;20226;-70
2022/05/25 07:51:05;;;;;;;3.37;1.27;;;14.90;99.90;;;;;;5074198;28;20176;-70
2022/05/25 07:56:18;;;;;;;2.43;1.00;;;14.90;99.90;;;;;;5073837;28;20270;-70
2022/05/25 07:58:45;;;;;;;3.60;1.30;;;14.80;99.90;;;;;;5074047;28;20183;-69
2022/05/25 08:01:15;;;;;;;3.60;1.50;;;14.80;99.90;;;;;;5074144;28;20211;-70
2022/05/25 08:06:30;;;;;;;4.50;1.43;;;14.70;99.90;;;;;;5074018;28;20190;-71
2022/05/25 08:08:58;;;;;;;4.27;1.50;;;14.70;99.90;;;;;;5073944;28;20168;-70
2022/05/25 08:11:25;;;;;;;4.37;1.77;;;14.70;99.90;;;;;;5074189;28;20207;-70
2022/05/25 08:13:56;;;;;;;3.03;1.23;;;14.70;99.90;;;;;;5074152;28;20199;-70
2022/05/25 08:16:23;;;;;;;7.87;1.63;;;14.60;99.90;;;;;;5073318;28;20219;-70
2022/05/25 08:18:50;;;;;;;5.30;1.63;;;14.60;99.90;;;;;;5073780;28;20215;-70
2022/05/25 08:21:18;;;;;;;3.40;1.63;;;14.50;99.90;;;;;;5073430;28;20208;-69
2022/05/25 08:23:45;;;;;;;4.03;1.53;;;14.40;99.90;;;;;;5073659;28;20173;-69
2022/05/25 08:26:12;;;;;;;5.23;1.47;;;14.40;99.90;;;;;;5073368;28;20176;-69
2022/05/25 08:28:40;;;;;;;5.53;1.80;;;14.30;99.90;;;;;;5073469;28;20172;-70
2022/05/25 08:31:07;;;;;;;3.17;1.47;;;14.30;99.90;;;;;;5073575;28;20168;-70
2022/05/25 08:33:34;;;;;;;3.87;1.63;;;14.30;99.90;;;;;;5073624;28;20211;-70
2022/05/25 08:36:02;;;;;;;4.10;1.97;;;14.20;99.90;;;;;;5073228;28;20253;-70
2022/05/25 08:38:29;;;;;;;5.20;1.90;;;14.10;99.90;;;;;;5073271;28;20179;-70
2022/05/25 08:40:58;;;;;;;4.17;1.90;;;14.20;99.90;;;;;;5073275;28;20622;-70
2022/05/25 08:43:45;;;;;;;5.70;1.80;;;14.20;99.90;;;;;;5073396;28;20203;-70
2022/05/25 08:46:18;;;;;;;3.90;1.80;;;14.10;99.90;;;;;;5072088;28;20598;-70
2022/05/25 08:48:46;;;;;;;4.43;1.80;;;14.20;99.90;;;;;;5073785;28;20244;-70
2022/05/25 08:51:27;;;;;;;3.10;1.50;;;14.10;99.90;;;;;;5072365;28;20257;-70
2022/05/25 08:53:58;;;;;;;3.07;1.43;;;14.10;99.90;;;;;;5073275;28;20221;-70
2022/05/25 08:56:49;;;;;;;8.03;1.73;;;14.00;99.90;;;;;;5073059;28;20285;-70
2022/05/25 08:59:31;;;;;;;3.40;1.60;;;13.90;99.90;;;;;;5072162;28;20176;-70
2022/05/25 09:02:06;;;;;;;3.23;1.50;;;13.90;99.90;;;;;;5073452;28;20206;-70
2022/05/25 09:04:42;;;;;;;4.67;1.57;;;13.80;99.90;;;;;;5073276;28;20172;-71
2022/05/25 09:07:30;;;;;;;4.30;1.77;;;13.80;99.90;;;;;;5073166;28;20183;-70
2022/05/25 09:09:58;;;;;;;3.10;1.97;;;13.70;99.90;;;;;;5071850;28;20183;-70
2022/05/25 09:12:32;;;;;;;6.97;2.63;;;13.70;99.90;;;;;;5073037;28;20221;-70
2022/05/25 09:15:29;;;;;;;7.10;2.73;;;13.70;99.90;;;;;;5073248;28;20168;-70
2022/05/25 09:18:05;;;;;;;4.33;2.03;;;13.70;99.90;;;;;;5072877;28;20274;-71
2022/05/25 09:20:39;;;;;;;7.97;2.73;;;13.60;99.90;;;;;;5072977;28;20755;-70
2022/05/25 09:23:06;;;;;;;5.57;3.17;;;13.60;99.90;;;;;;5073096;28;20641;-69
2022/05/25 09:25:34;;;;;;;6.10;3.10;;;13.50;99.90;;;;;;5072873;28;20190;-70
2022/05/25 09:28:16;;;;;;;4.97;3.23;;;13.50;99.90;;;;;;5073572;28;20237;-70
2022/05/25 09:30:47;;;;;;;4.20;2.80;;;13.50;99.90;;;;;;5072833;28;20263;-69
2022/05/25 09:33:40;;;;;;;5.43;2.80;;;13.50;99.90;;;;;;5073141;28;20164;-70
2022/05/25 09:36:34;;;;;;;5.67;3.17;;;13.50;99.90;;;;;;5072628;28;20174;-70
2022/05/25 09:39:23;;;;;;;6.33;3.10;;;13.50;99.90;;;;;;5072803;28;20766;-69
2022/05/25 09:41:58;;;;;;;6.43;3.43;;;13.50;99.90;;;;;;5072827;28;20211;-70
2022/05/25 09:44:26;;;;;;;6.00;3.03;;;13.40;99.90;;;;;;5071927;28;20190;-70
2022/05/25 09:47:25;;;;;;;5.97;3.30;;;13.40;99.90;;;;;;5072879;28;20252;-71
2022/05/25 09:49:57;;;;;;;8.27;3.37;;;13.30;99.90;;;;;;5068290;28;20188;-70
2022/05/25 09:52:30;;;;;;;5.20;3.03;;;13.30;99.90;;;;;;5071547;28;20639;-71
2022/05/25 09:55:30;;;;;;;5.37;2.93;;;13.30;99.90;;;;;;5072822;28;20167;-70
2022/05/25 09:58:02;;;;;;;9.50;3.93;;;13.20;99.90;;;;;;5072637;28;20171;-70
2022/05/25 10:00:41;;;;;;;7.07;3.63;;;13.20;99.90;;;;;;5072621;28;20207;-70
2022/05/25 10:03:23;;;;;;;6.37;3.17;;;13.20;99.90;;;;;;5075590;28;20610;-69
2022/05/25 10:05:58;;;;;;;4.87;3.33;;;13.20;99.90;;;;;;5076321;28;20172;-69
2022/05/25 10:08:40;;;;;;;7.57;3.60;;;13.20;99.90;;;;;;5076152;28;20171;-70
2022/05/25 10:11:27;;;;;;;6.53;4.07;;;13.20;99.90;;;;;;5076275;28;20182;-69
2022/05/25 10:14:16;;;;;;;7.53;3.73;;;13.20;99.90;;;;;;5076032;28;20184;-70
2022/05/25 10:16:44;;;;;;;9.10;4.17;;;13.10;99.90;;;;;;5075860;28;20250;-70
2022/05/25 10:19:17;;;;;;;8.63;4.57;;;13.10;99.90;;;;;;5075982;28;20652;-70
2022/05/25 10:21:53;;;;;;;8.00;4.57;;;13.10;99.90;;;;;;5075791;28;20211;-70
2022/05/25 10:24:25;;;;;;;6.07;3.83;;;13.00;99.90;;;;;;5076272;28;20625;-71
2022/05/25 10:26:59;;;;;;;5.80;3.97;;;13.00;99.90;;;;;;5075784;28;20179;-70
2022/05/25 10:38:43;;;;;;;8.20;4.30;;;12.90;99.90;;;;;;5076319;28;20186;-71
2022/05/25 10:44:13;;;;;;;7.97;4.57;;;12.90;99.90;;;;;;5075689;28;20585;-70
2022/05/25 10:46:46;;;;;;;12.17;5.03;;;12.80;99.90;;;;;;5075566;28;20179;-71
2022/05/25 10:49:43;;;;;;;8.67;3.97;;;12.80;99.90;;;;;;5075597;28;20182;-71
2022/05/25 10:52:39;;;;;;;5.33;2.90;;;12.80;99.90;;;;;;5075603;28;20225;-70
2022/05/25 10:55:08;;;;;;;8.30;3.47;;;12.80;99.90;;;;;;5074866;28;20195;-70
2022/05/25 10:58:11;;;;;;;8.03;2.63;;;12.90;99.90;;;;;;5075352;28;20182;-70
2022/05/25 11:00:54;;;;;;;3.57;2.37;;;12.90;99.90;;;;;;5074622;28;20226;-70
2022/05/25 11:03:59;;;;;;;4.40;2.30;;;12.90;99.90;;;;;;5075063;28;20179;-70
2022/05/25 11:06:48;;;;;;;6.87;2.90;;;12.90;99.90;;;;;;5063817;28;20198;-70
2022/05/25 11:09:42;;;;;;;4.77;2.50;;;12.90;99.90;;;;;;5075306;28;20182;-70
2022/05/25 11:12:53;;;;;;;6.00;2.70;;;12.80;99.90;;;;;;5075532;28;20183;-71
2022/05/25 11:15:26;;;;;;;7.27;3.77;;;12.70;99.90;;;;;;5072009;28;20193;-70
2022/05/25 11:18:29;;;;;;;6.33;3.83;;;12.70;99.90;;;;;;5074630;28;20316;-70
2022/05/25 11:21:30;;;;;;;6.20;4.13;;;13.00;99.90;;;;;;5074873;28;20203;-70
2022/05/25 11:24:11;;;;;;;6.13;3.90;;;13.00;99.90;;;;;;5074820;28;20182;-71
2022/05/25 11:26:47;;;;;;;8.70;4.50;;;12.90;99.90;;;;;;5074819;28;20172;-71
2022/05/25 11:29:25;;;;;;;6.80;3.90;;;12.80;99.90;;;;;;5074947;28;20177;-71
2022/05/25 11:32:10;;;;;;;10.43;4.50;;;12.80;99.90;;;;;;5074789;28;20177;-71
2022/05/25 11:34:49;;;;;;;8.17;4.20;;;12.70;99.90;;;;;;5074602;28;20186;-69
2022/05/25 11:37:49;;;;;;;7.17;4.20;;;12.60;99.90;;;;;;5074606;28;20167;-69
2022/05/25 11:40:42;;;;;;;5.50;4.00;;;12.60;99.90;;;;;;5072256;28;20210;-71
2022/05/25 11:43:41;;;;;;;5.57;4.00;;;12.60;99.90;;;;;;5072266;28;20307;-70
2022/05/25 11:46:12;;;;;;;9.23;3.73;;;12.50;99.90;;;;;;5054837;28;20196;-69
2022/05/25 11:49:03;;;;;;;6.57;4.13;;;12.40;99.90;;;;;;5073493;28;20178;-68
2022/05/25 11:51:47;;;;;;;5.50;4.13;;;12.40;99.90;;;;;;5073937;28;20190;-70
2022/05/25 11:54:56;;;;;;;7.50;4.63;;;12.30;99.90;;;;;;5074209;28;20171;-68
2022/05/25 11:58:00;;;;;;;7.47;4.90;;;12.30;99.90;;;;;;5073674;28;20190;-68
2022/05/25 12:00:52;;;;;;;12.37;4.80;;;12.20;99.90;;;;;;5089361;28;20245;-69
2022/05/25 12:03:37;;;;;;;8.50;4.20;;;12.20;99.90;;;;;;5073287;28;20182;-68
2022/05/25 12:06:30;;;;;;;10.40;3.40;;;12.20;99.90;;;;;;5074059;28;20186;-69
2022/05/25 12:09:16;;;;;;;6.50;3.50;;;12.20;99.90;;;;;;5073043;28;20240;-68
2022/05/25 12:12:09;;;;;;;7.40;3.83;;;12.20;99.90;;;;;;5063325;28;20265;-69
2022/05/25 12:14:49;;;;;;;7.40;3.87;;;12.20;99.90;;;;;;5063565;28;20198;-69
2022/05/25 12:17:36;;;;;;;5.70;3.77;;;12.20;99.90;;;;;;5073569;28;20241;-69
2022/05/25 12:20:09;;;;;;;7.13;3.93;;;12.20;99.90;;;;;;5073426;28;20205;-69
2022/05/25 12:22:37;;;;;;;4.60;3.60;;;12.10;99.90;;;;;;5073355;28;20235;-69
2022/05/25 12:25:13;;;;;;;6.07;3.63;;;12.10;99.90;;;;;;5069752;28;20211;-68
2022/05/25 12:27:45;;;;;;;12.70;4.27;;;12.00;99.90;;;;;;5070987;28;20559;-68
2022/05/25 12:30:22;;;;;;;8.33;4.67;;;12.10;99.90;;;;;;5072821;28;20207;-69
2022/05/25 12:32:51;;;;;;;8.70;4.03;;;12.00;99.90;;;;;;5073586;28;20750;-68
2022/05/25 12:35:19;;;;;;;6.17;3.77;;;12.10;99.90;;;;;;5073413;28;20182;-68
2022/05/25 12:37:51;;;;;;;5.93;3.90;;;12.00;99.90;;;;;;5073518;28;20187;-68
2022/05/25 12:40:27;;;;;;;6.23;4.00;;;12.00;99.90;;;;;;5072448;28;20566;-68
2022/05/25 12:42:55;;;;;;;4.53;3.90;;;12.00;99.90;;;;;;5073154;28;20213;-68
2022/05/25 12:48:33;;;;;;;8.13;4.23;;;12.00;99.90;;;;;;5072851;28;20277;-68
2022/05/25 12:51:08;;;;;;;7.60;3.80;;;11.90;99.90;;;;;;5053254;28;20629;-68
2022/05/25 12:53:54;;;;;;;6.23;3.73;;;11.90;99.90;;;;;;5065073;28;20214;-69
2022/05/25 12:56:24;;;;;;;6.23;3.80;;;11.80;99.90;;;;;;5072227;28;20652;-68
2022/05/25 12:58:56;;;;;;;8.10;3.27;;;11.80;99.90;;;;;;5072423;28;20648;-68
2022/05/25 13:01:27;;;;;;;6.27;3.63;;;11.70;99.90;;;;;;5070159;28;20237;-68
2022/05/25 13:03:57;;;;;;;6.43;3.30;;;11.60;99.90;;;;;;5073111;28;20543;-69
2022/05/25 13:06:46;;;;;;;7.10;3.53;;;11.70;99.90;;;;;;5073100;28;20236;-69
2022/05/25 13:09:42;;;;;;;5.53;3.40;;;11.70;99.90;;;;;;5069164;28;20189;-69
2022/05/25 13:12:36;;;;;;;8.53;3.50;;;11.70;99.90;;;;;;5072265;28;20193;-69
2022/05/25 13:15:05;;;;;;;5.30;3.50;;;11.70;99.90;;;;;;5072590;28;20186;-69
2022/05/25 13:17:56;;;;;;;5.10;3.23;;;11.60;99.90;;;;;;5072735;28;20703;-68
2022/05/25 13:20:46;;;;;;;6.13;3.87;;;11.60;99.90;;;;;;5069444;28;20228;-70
2022/05/25 13:23:51;;;;;;;4.80;3.57;;;11.70;99.90;;;;;;5072466;28;20663;-69
2022/05/25 13:26:30;;;;;;;6.50;3.73;;;11.60;99.90;;;;;;5072720;28;20270;-69
2022/05/25 13:29:09;;;;;;;6.47;3.60;;;11.60;99.90;;;;;;5072652;28;20181;-69
2022/05/25 13:32:08;;;;;;;5.17;3.43;;;11.50;99.90;;;;;;5073078;28;20670;-69
2022/05/25 13:34:36;;;;;;;4.93;3.70;;;11.50;99.90;;;;;;5072590;28;20193;-69
2022/05/25 13:37:13;;;;;;;4.73;3.27;;;11.50;99.90;;;;;;5074063;28;20178;-68
2022/05/25 13:39:42;;;;;;;4.93;3.20;;;11.40;99.90;;;;;;5075977;28;20177;-69
2022/05/25 13:42:16;;;;;;;7.03;3.97;;;11.50;99.90;;;;;;5075799;28;20190;-68
2022/05/25 13:44:50;;;;;;;7.33;3.63;;;11.50;99.90;;;;;;5076730;28;20285;-68
2022/05/25 13:47:21;;;;;;;5.00;3.53;;;11.60;99.90;;;;;;5076507;28;20540;-68
2022/05/25 13:49:52;;;;;;;4.27;3.27;;;11.60;99.90;;;;;;5076345;28;20543;-68
2022/05/25 13:52:23;;;;;;;6.63;3.40;;;11.60;99.90;;;;;;5076602;28;20555;-68
2022/05/25 13:54:55;;;;;;;7.63;4.30;;;11.60;99.90;;;;;;5076224;28;20194;-68